Terminal Aerodrome Forecast
Issued by NWS

Home | Current Version | Previous Version | Text Only | Print | Product List | Glossary On
Versions: 1 2 3 4 5 6 7 8 9 10 11 12 13
000
FTUS46 KMTR 281700
TAFOAK
TAF
KOAK 281735Z 2818/2924 VRB03KT P6SM FEW150
     FM282000 29005KT P6SM FEW100 SCT200 BKN250
     FM290900 VRB03KT 6SM BR FEW009 SCT200
     FM291800 VRB03KT P6SM SCT150=

USA.gov is the U.S. government's official web portal to all federal, state and local government web resources and services.